Time;durP1;ratioP1;P1;durP2;ratioP2;P2;SDS_P1;SDS_P2;PMS_P1;PMS_P2;Temp;Humidity;BMP_temperature;BMP_pressure;BME280_temperature;BME280_humidity;BME280_pressure;Samples;Min_cycle;Max_cycle;Signal;HPM_P1;HPM_P2
2022/03/09 00:01:18;;;;;;;17.23;10.68;;;;;;;5.88;73.50;101579.97;5039530;28;20098;-87
2022/03/09 00:03:44;;;;;;;17.55;10.40;;;;;;;5.75;73.62;101568.41;5033698;28;20533;-85
2022/03/09 00:06:10;;;;;;;17.40;10.32;;;;;;;5.42;73.36;101503.47;5037526;28;20033;-84
2022/03/09 00:08:35;;;;;;;17.90;10.70;;;;;;;5.71;73.72;101556.88;5031434;28;20029;-85
2022/03/09 00:11:01;;;;;;;17.35;10.60;;;;;;;4.99;73.79;101449.63;5013582;28;20120;-85
2022/03/09 00:13:27;;;;;;;15.90;10.05;;;;;;;5.85;73.44;101573.63;5031042;28;20032;-85
2022/03/09 00:15:52;;;;;;;16.33;10.13;;;;;;;5.58;73.93;101557.50;5031169;28;20143;-86
2022/03/09 00:18:19;;;;;;;18.05;10.43;;;;;;;5.58;73.76;101552.31;5031137;28;20116;-84
2022/03/09 00:20:45;;;;;;;17.58;10.63;;;;;;;5.81;73.67;101585.41;5030717;28;20030;-85
2022/03/09 00:23:11;;;;;;;16.65;10.05;;;;;;;5.60;73.14;101522.25;5031502;28;20104;-86
2022/03/09 00:25:37;;;;;;;18.90;10.80;;;;;;;5.86;73.47;101560.81;5030834;28;20048;-85
2022/03/09 00:28:02;;;;;;;17.77;10.90;;;;;;;5.77;73.22;101535.75;5031508;28;20056;-85
2022/03/09 00:30:28;;;;;;;16.33;10.13;;;;;;;5.75;72.94;101533.03;5030537;28;20415;-86
2022/03/09 00:32:54;;;;;;;15.93;10.60;;;;;;;5.63;73.48;101552.69;5030557;28;20029;-84
2022/03/09 00:35:19;;;;;;;17.60;10.60;;;;;;;5.51;74.21;101540.53;5030802;28;20034;-86
2022/03/09 00:37:45;;;;;;;15.75;10.02;;;;;;;5.70;73.97;101573.22;5013430;28;20037;-84
2022/03/09 00:40:10;;;;;;;16.52;10.20;;;;;;;5.66;74.23;101553.88;5030755;28;20045;-85
2022/03/09 00:42:37;;;;;;;16.95;9.93;;;;;;;5.28;74.23;101501.38;5013246;28;20041;-84
2022/03/09 00:45:04;;;;;;;16.15;10.40;;;;;;;5.18;73.95;101472.84;5013613;28;20033;-85
2022/03/09 00:47:30;;;;;;;17.15;10.45;;;;;;;5.65;73.71;101528.78;5012773;28;20030;-85
2022/03/09 00:49:56;;;;;;;15.57;9.63;;;;;;;5.64;74.19;101554.53;5001598;28;20032;-85
2022/03/09 00:52:22;;;;;;;16.63;10.35;;;;;;;5.67;74.50;101559.97;5007994;28;20247;-85
2022/03/09 00:54:48;;;;;;;16.25;10.45;;;;;;;5.86;73.80;101570.22;5030503;28;20115;-85
2022/03/09 00:57:15;;;;;;;16.85;10.40;;;;;;;5.56;73.40;101506.34;5026689;28;20113;-85
2022/03/09 00:59:40;;;;;;;16.13;9.90;;;;;;;5.45;74.16;101527.03;5017520;28;20061;-85
2022/03/09 01:02:07;;;;;;;16.40;10.27;;;;;;;5.41;74.18;101517.19;5012999;28;20136;-85
2022/03/09 01:04:36;;;;;;;17.95;10.75;;;;;;;5.61;74.27;101554.25;5012756;28;20618;-85
2022/03/09 01:07:03;;;;;;;16.58;10.23;;;;;;;5.45;74.38;101527.03;5046584;28;20033;-85
2022/03/09 01:09:28;;;;;;;16.00;10.35;;;;;;;5.38;74.30;101509.16;5013392;28;20022;-86
2022/03/09 01:11:56;;;;;;;18.80;10.17;;;;;;;5.68;74.28;101556.63;5013542;28;20034;-84
2022/03/09 01:14:23;;;;;;;14.20;9.52;;;;;;;5.43;73.93;101502.69;5034868;28;20264;-85
2022/03/09 01:16:48;;;;;;;;;;;;;;;5.74;74.09;101551.97;5033331;28;20037;-83
2022/03/09 01:19:14;;;;;;;15.27;9.50;;;;;;;5.60;73.98;101527.44;5016832;28;19913;-84
2022/03/09 01:21:39;;;;;;;15.00;9.45;;;;;;;5.65;74.37;101544.31;5034361;28;20048;-85
2022/03/09 01:24:06;;;;;;;17.23;10.25;;;;;;;5.34;73.91;101493.22;5034455;28;20056;-85
2022/03/09 01:26:32;;;;;;;16.73;10.57;;;;;;;5.59;73.52;101515.28;5034504;28;20025;-85
2022/03/09 01:28:58;;;;;;;16.33;10.27;;;;;;;5.81;73.59;101546.53;4985583;28;20030;-85
2022/03/09 01:31:24;;;;;;;17.73;10.88;;;;;;;5.59;73.35;101506.56;4997870;28;20048;-85
2022/03/09 01:33:50;;;;;;;15.88;10.68;;;;;;;5.49;73.44;101489.34;5032461;28;20105;-85
2022/03/09 01:36:15;;;;;;;18.35;10.93;;;;;;;5.52;74.19;101520.69;5033119;28;20026;-86
2022/03/09 01:38:41;;;;;;;17.20;10.02;;;;;;;5.53;74.21;101532.00;5022408;28;20072;-86
2022/03/09 01:41:07;;;;;;;17.98;10.77;;;;;;;5.62;74.19;101522.41;5016278;28;20141;-84
2022/03/09 01:43:32;;;;;;;15.77;10.13;;;;;;;5.78;73.91;101534.97;5033507;28;20032;-86
2022/03/09 01:45:58;;;;;;;18.15;10.98;;;;;;;5.34;74.37;101491.53;5037711;28;20029;-86
2022/03/09 01:48:23;;;;;;;16.85;10.27;;;;;;;5.58;74.19;101515.16;5053961;28;20107;-86
2022/03/09 01:50:49;;;;;;;18.10;10.77;;;;;;;5.61;73.90;101547.41;5042043;28;20033;-85
2022/03/09 01:53:18;;;;;;;17.48;10.63;;;;;;;5.52;74.48;101546.59;5016391;28;20479;-86
2022/03/09 01:55:44;;;;;;;16.48;10.50;;;;;;;5.53;74.45;101539.75;5016218;28;20042;-85
2022/03/09 01:58:10;;;;;;;17.00;10.10;;;;;;;5.52;74.29;101518.09;5016120;28;20040;-86
2022/03/09 02:00:35;;;;;;;17.05;9.90;;;;;;;5.79;73.63;101545.47;5016138;28;20477;-85
2022/03/09 02:03:01;;;;;;;16.17;10.23;;;;;;;5.43;74.02;101502.69;5015724;28;20494;-86
2022/03/09 02:05:27;;;;;;;16.75;10.65;;;;;;;5.65;74.01;101544.31;5033805;28;20029;-86
2022/03/09 02:10:38;;;;;;;14.75;9.55;;;;;;;5.52;73.92;101531.06;5030653;28;20184;-86
2022/03/09 02:13:04;;;;;;;16.90;10.38;;;;;;;5.57;74.45;101547.91;5027887;28;20044;-86
2022/03/09 02:15:29;;;;;;;16.75;10.35;;;;;;;5.62;73.52;101536.25;5033034;28;20025;-86
2022/03/09 02:17:55;;;;;;;17.25;10.65;;;;;;;5.46;74.28;101526.28;5033272;28;20103;-83
2022/03/09 02:20:21;;;;;;;17.40;10.40;;;;;;;5.43;73.78;101512.13;5033623;28;20057;-86
2022/03/09 02:22:46;;;;;;;16.17;9.90;;;;;;;5.36;73.76;101486.50;5031533;28;20038;-85
2022/03/09 02:25:14;;;;;;;16.88;10.38;;;;;;;5.68;73.79;101544.56;5033319;28;20032;-85
2022/03/09 02:27:41;;;;;;;17.30;9.88;;;;;;;5.71;73.86;101541.31;5015487;28;20026;-85
2022/03/09 02:30:09;;;;;;;17.10;10.55;;;;;;;5.33;74.16;101492.28;5032986;28;20041;-85
2022/03/09 02:32:46;;;;;;;17.83;10.35;;;;;;;5.60;73.80;101543.00;5014889;28;20427;-85
2022/03/09 02:35:13;;;;;;;17.52;10.43;;;;;;;5.43;74.00;101518.22;5015403;28;20053;-85
2022/03/09 02:37:40;;;;;;;16.55;10.23;;;;;;;5.27;73.87;101473.63;5032926;28;20040;-85
2022/03/09 02:40:11;;;;;;;17.00;10.38;;;;;;;5.66;73.93;101538.34;5015304;28;20037;-85
2022/03/09 02:42:37;;;;;;;17.08;10.23;;;;;;;5.57;73.48;101515.94;5014469;28;20036;-85
2022/03/09 02:45:03;;;;;;;17.25;10.05;;;;;;;5.50;74.38;101543.91;5032778;28;20112;-85
2022/03/09 02:47:29;;;;;;;19.35;11.10;;;;;;;5.33;73.96;101494.88;5014570;28;20482;-85
2022/03/09 02:49:54;;;;;;;17.17;10.30;;;;;;;5.41;74.23;101522.34;4998791;28;20061;-86
2022/03/09 02:52:20;;;;;;;18.00;10.65;;;;;;;5.50;74.02;101528.34;5032508;28;20670;-85
2022/03/09 02:54:46;;;;;;;18.80;10.82;;;;;;;5.35;74.02;101514.06;5011381;28;20466;-85
2022/03/09 02:57:11;;;;;;;17.85;10.77;;;;;;;5.43;74.42;101538.03;5012902;28;20026;-85
2022/03/09 02:59:37;;;;;;;17.85;10.90;;;;;;;5.46;74.33;101520.16;5011230;28;20048;-85
2022/03/09 03:02:03;;;;;;;18.85;10.23;;;;;;;5.55;74.26;101546.88;5010933;28;20052;-85
2022/03/09 03:04:29;;;;;;;18.08;10.82;;;;;;;5.30;74.11;101507.59;5012958;28;20104;-85
2022/03/09 03:06:54;;;;;;;19.15;10.68;;;;;;;5.18;74.26;101496.16;5011047;28;20026;-86
2022/03/09 03:09:20;;;;;;;16.98;10.15;;;;;;;5.34;74.13;101517.44;5010812;28;20037;-85
2022/03/09 03:11:46;;;;;;;18.52;10.60;;;;;;;5.58;73.72;101552.31;5011513;28;20491;-86
2022/03/09 03:14:11;;;;;;;17.70;10.50;;;;;;;5.25;73.79;101514.97;5012428;28;20483;-85
2022/03/09 03:16:37;;;;;;;18.80;11.32;;;;;;;5.46;73.90;101543.47;5018829;28;20018;-85
2022/03/09 03:19:03;;;;;;;17.83;10.48;;;;;;;5.45;74.07;101555.53;5018512;28;20038;-84
2022/03/09 03:21:29;;;;;;;18.75;11.13;;;;;;;5.42;74.23;101560.47;5018848;28;20080;-85
2022/03/09 03:23:55;;;;;;;18.58;10.80;;;;;;;5.38;74.00;101537.66;5011758;28;20022;-84
2022/03/09 03:26:20;;;;;;;16.60;10.75;;;;;;;5.54;73.71;101539.88;5012845;28;20385;-84
2022/03/09 03:28:46;;;;;;;16.45;10.52;;;;;;;5.58;74.10;101561.78;5010733;28;20029;-85
2022/03/09 03:31:11;;;;;;;17.52;10.32;;;;;;;5.58;73.62;101554.00;5012156;28;20038;-84
2022/03/09 03:33:37;;;;;;;15.73;9.88;;;;;;;5.39;74.19;101547.22;5011669;28;20041;-84
2022/03/09 03:36:03;;;;;;;17.25;10.63;;;;;;;5.41;74.12;101555.13;5011686;28;20523;-85
2022/03/09 03:38:29;;;;;;;18.02;10.38;;;;;;;5.39;74.17;101554.09;5011010;28;20104;-85
2022/03/09 03:40:54;;;;;;;18.67;11.05;;;;;;;5.35;74.54;101550.31;5010391;28;20037;-84
2022/03/09 03:43:20;;;;;;;18.50;10.35;;;;;;;5.42;73.99;101544.91;5012072;28;20046;-84
2022/03/09 03:45:45;;;;;;;17.95;10.52;;;;;;;5.37;73.58;101515.09;5010613;28;20388;-84
2022/03/09 03:48:11;;;;;;;15.40;10.10;;;;;;;5.26;74.07;101515.84;5011632;28;20480;-85
2022/03/09 03:50:37;;;;;;;16.50;10.27;;;;;;;5.35;73.88;101507.97;5011795;28;20030;-84
2022/03/09 03:53:02;;;;;;;17.88;10.70;;;;;;;5.58;73.70;101544.53;5012203;28;20041;-85
2022/03/09 03:55:28;;;;;;;17.08;10.85;;;;;;;5.23;73.83;101488.03;5026460;28;20128;-85
2022/03/09 03:57:54;;;;;;;19.88;11.02;;;;;;;5.40;73.20;101498.94;5030007;28;20048;-86
2022/03/09 04:00:19;;;;;;;16.88;10.40;;;;;;;5.24;73.76;101497.59;5031060;28;20091;-85
2022/03/09 04:02:45;;;;;;;18.25;10.80;;;;;;;5.37;73.70;101514.19;5013572;28;20061;-85
2022/03/09 04:05:11;;;;;;;16.30;10.00;;;;;;;5.47;73.37;101514.22;5031208;28;20550;-85
2022/03/09 04:07:36;;;;;;;16.02;10.13;;;;;;;5.53;73.67;101543.25;5031416;28;20108;-85
2022/03/09 04:10:03;;;;;;;16.70;10.23;;;;;;;5.51;73.69;101535.34;5030958;28;20026;-85
2022/03/09 04:12:29;;;;;;;17.20;10.20;;;;;;;5.37;74.22;101541.00;5031186;28;20083;-84
2022/03/09 04:14:54;;;;;;;18.13;10.23;;;;;;;5.48;73.34;101509.19;5030757;28;20037;-85
2022/03/09 04:17:21;;;;;;;18.42;10.38;;;;;;;5.37;73.89;101520.28;5014006;28;20029;-85
2022/03/09 04:19:46;;;;;;;17.67;10.38;;;;;;;5.24;73.50;101494.09;5013333;28;20117;-85
2022/03/09 04:22:12;;;;;;;18.05;10.45;;;;;;;5.30;73.38;101502.41;5031016;28;20104;-84
2022/03/09 04:24:38;;;;;;;18.02;10.63;;;;;;;5.49;73.61;101539.47;5013239;28;20100;-84
2022/03/09 04:27:04;;;;;;;16.67;10.50;;;;;;;5.34;73.66;101532.06;5030616;28;20044;-85
2022/03/09 04:29:29;;;;;;;17.40;10.25;;;;;;;5.21;73.96;101514.56;5013476;28;20040;-85
2022/03/09 04:31:55;;;;;;;17.13;9.77;;;;;;;5.38;74.07;101544.53;5013505;28;20033;-84
2022/03/09 04:34:21;;;;;;;16.65;10.10;;;;;;;5.20;73.74;101521.41;5013244;28;20487;-85
2022/03/09 04:36:46;;;;;;;19.90;11.30;;;;;;;5.39;73.80;101562.75;5030309;28;20029;-85
2022/03/09 04:39:12;;;;;;;18.80;10.48;;;;;;;5.13;74.08;101524.25;5026979;28;20207;-85
2022/03/09 04:41:37;;;;;;;17.95;10.30;;;;;;;5.24;73.55;101530.34;5026018;28;20041;-84
2022/03/09 04:44:03;;;;;;;18.13;10.15;;;;;;;5.40;73.66;101541.28;5024343;28;20034;-84
2022/03/09 04:46:29;;;;;;;17.67;10.65;;;;;;;5.18;73.70;101511.69;5026355;28;20031;-86
2022/03/09 04:48:55;;;;;;;17.38;10.23;;;;;;;5.26;73.81;101540.06;5030583;28;21157;-85
2022/03/09 04:51:20;;;;;;;18.60;10.65;;;;;;;5.45;73.84;101562.41;5032344;28;20417;-84
2022/03/09 04:53:46;;;;;;;16.85;10.20;;;;;;;5.43;73.43;101551.00;5023560;28;20383;-84
2022/03/09 04:56:12;;;;;;;17.57;10.27;;;;;;;5.42;73.18;101551.75;5033528;28;20148;-85
2022/03/09 04:58:37;;;;;;;17.63;9.73;;;;;;;5.53;73.58;101574.34;5033962;28;20022;-83
2022/03/09 05:01:03;;;;;;;17.75;10.27;;;;;;;5.36;73.66;101559.91;5033646;28;20041;-84
2022/03/09 05:03:29;;;;;;;18.60;10.52;;;;;;;5.26;73.59;101544.34;5031572;28;20552;-83
2022/03/09 05:05:54;;;;;;;17.55;10.45;;;;;;;5.44;73.39;101578.69;5004174;28;20068;-83
2022/03/09 05:08:20;;;;;;;16.25;10.07;;;;;;;5.29;73.45;101553.28;5032845;28;20024;-84
2022/03/09 05:10:45;;;;;;;17.80;11.02;;;;;;;5.28;73.82;101547.97;5032603;28;20037;-85
2022/03/09 05:13:11;;;;;;;18.35;10.20;;;;;;;5.14;73.39;101522.56;5032805;28;20487;-83
2022/03/09 05:15:37;;;;;;;17.88;10.68;;;;;;;5.25;73.78;101550.31;5031244;28;20101;-84
2022/03/09 05:18:02;;;;;;;18.00;10.52;;;;;;;5.09;73.87;101536.00;5030522;28;20029;-84
2022/03/09 05:20:28;;;;;;;16.20;10.18;;;;;;;5.13;74.21;101546.63;5033678;28;20034;-85
2022/03/09 05:22:54;;;;;;;17.00;10.10;;;;;;;4.92;73.92;101525.84;5015712;28;20064;-85
2022/03/09 05:25:19;;;;;;;17.48;10.35;;;;;;;5.15;74.29;101577.06;5051752;28;20475;-86
2022/03/09 05:27:45;;;;;;;17.85;10.20;;;;;;;5.21;74.41;101597.41;5015254;28;20043;-85
2022/03/09 05:30:11;;;;;;;16.92;10.10;;;;;;;5.25;74.11;101602.09;5031699;28;20048;-84
2022/03/09 05:32:38;;;;;;;17.20;9.85;;;;;;;5.39;73.20;101590.34;4999253;28;20037;-83
2022/03/09 05:35:04;;;;;;;16.02;9.90;;;;;;;5.09;73.81;101573.94;5028109;28;20057;-82
2022/03/09 05:37:42;;;;;;;17.63;10.88;;;;;;;5.33;73.41;101582.94;5015873;28;20419;-83
2022/03/09 05:40:08;;;;;;;16.33;9.90;;;;;;;5.14;73.81;101588.16;5030927;28;20055;-82
2022/03/09 05:42:34;;;;;;;17.25;10.07;;;;;;;5.19;74.00;101594.69;5015788;28;20399;-84
2022/03/09 05:44:59;;;;;;;18.45;10.52;;;;;;;5.18;74.07;101595.44;5014357;28;20045;-83
2022/03/09 05:47:25;;;;;;;19.17;10.63;;;;;;;5.45;73.42;101624.56;5023652;28;20491;-84
2022/03/09 05:49:51;;;;;;;16.83;10.30;;;;;;;5.24;74.04;101628.75;5030076;28;20037;-83
2022/03/09 05:52:17;;;;;;;20.67;11.25;;;;;;;4.89;74.28;101567.88;5012341;28;20130;-84
2022/03/09 05:54:45;;;;;;;17.80;10.27;;;;;;;5.26;73.79;101628.09;5020081;28;20068;-83
2022/03/09 05:57:17;;;;;;;16.38;9.68;;;;;;;5.08;73.67;101592.84;5010002;28;20038;-85
2022/03/09 05:59:43;;;;;;;17.65;10.00;;;;;;;5.33;73.27;101620.88;5021109;28;20033;-83
2022/03/09 06:02:09;;;;;;;19.63;10.88;;;;;;;5.06;73.90;101597.88;5033030;28;20029;-84
2022/03/09 06:04:35;;;;;;;18.13;10.85;;;;;;;4.56;73.97;101508.84;5031512;28;20473;-84
2022/03/09 06:07:02;;;;;;;18.10;10.45;;;;;;;5.26;73.44;101622.03;5011959;28;20553;-84
2022/03/09 06:09:27;;;;;;;;;;;;;;;5.25;73.68;101638.34;5012568;28;20018;-84
2022/03/09 06:11:53;;;;;;;15.95;10.00;;;;;;;4.96;74.23;101600.41;5012049;28;19909;-84
2022/03/09 06:14:19;;;;;;;20.08;10.82;;;;;;;5.17;74.20;101639.34;5013190;28;20022;-84
2022/03/09 06:16:47;;;;;;;19.05;10.82;;;;;;;4.82;74.22;101567.19;5013358;28;20037;-84
2022/03/09 06:19:14;;;;;;;18.05;10.38;;;;;;;4.91;73.21;101555.09;5032969;28;20033;-84
2022/03/09 06:21:40;;;;;;;17.30;10.75;;;;;;;4.98;73.57;101593.69;5031528;28;20026;-86
2022/03/09 06:24:07;;;;;;;17.95;10.82;;;;;;;4.81;73.42;101565.38;5031529;28;20036;-89
2022/03/09 06:26:33;;;;;;;18.85;10.45;;;;;;;5.19;74.11;101628.34;5014518;28;20474;-86
2022/03/09 06:28:58;;;;;;;17.65;10.65;;;;;;;4.53;73.64;101513.75;5030400;28;20052;-84
2022/03/09 06:31:24;;;;;;;18.45;10.82;;;;;;;4.68;74.17;101543.59;5026957;28;20136;-89
2022/03/09 06:33:51;;;;;;;18.13;10.98;;;;;;;4.83;73.76;101558.69;4993478;28;20468;-88
2022/03/09 06:36:17;;;;;;;19.33;10.93;;;;;;;5.21;73.36;101611.28;4997580;28;20026;-89
2022/03/09 06:38:43;;;;;;;20.33;10.48;;;;;;;5.30;72.97;101631.88;5028997;28;20381;-87
2022/03/09 06:41:09;;;;;;;20.05;10.90;;;;;;;4.78;73.28;101547.88;5018209;28;20041;-88
2022/03/09 06:43:34;;;;;;;19.23;10.95;;;;;;;5.07;73.51;101603.94;5033162;28;20041;-89
2022/03/09 06:46:02;;;;;;;20.30;11.25;;;;;;;5.08;73.74;101611.84;5032035;28;20025;-85
2022/03/09 06:48:27;;;;;;;18.00;10.75;;;;;;;4.96;73.71;101594.31;5012094;28;20031;-85
2022/03/09 06:50:53;;;;;;;19.23;10.87;;;;;;;4.98;73.90;101609.22;4995200;28;20030;-84
2022/03/09 06:53:19;;;;;;;17.95;10.35;;;;;;;4.99;73.99;101617.88;5020100;28;20284;-86
2022/03/09 06:55:45;;;;;;;17.80;10.68;;;;;;;4.77;74.02;101586.59;5027158;28;20455;-86
2022/03/09 06:58:13;;;;;;;18.60;10.50;;;;;;;4.79;73.60;101574.69;5011576;28;20038;-87
2022/03/09 07:00:39;;;;;;;19.85;11.23;;;;;;;4.67;73.83;101556.38;5029248;28;20034;-86
2022/03/09 07:03:05;;;;;;;19.65;10.98;;;;;;;5.05;73.37;101598.63;5011060;28;20458;-87
2022/03/09 07:05:34;;;;;;;18.75;10.38;;;;;;;5.05;73.84;101621.03;5011300;28;20030;-85
2022/03/09 07:08:00;;;;;;;16.35;10.25;;;;;;;5.14;73.45;101623.53;5005373;28;20021;-85
2022/03/09 07:10:26;;;;;;;19.55;10.82;;;;;;;5.14;74.01;101657.19;5027134;28;20474;-85
2022/03/09 07:12:52;;;;;;;19.38;10.90;;;;;;;5.01;73.54;101616.34;5008842;28;20041;-86
2022/03/09 07:15:18;;;;;;;18.23;10.68;;;;;;;5.09;73.77;101642.13;5026280;28;20100;-85
2022/03/09 07:17:45;;;;;;;19.27;10.55;;;;;;;4.90;73.50;101605.91;5009608;28;20537;-85
2022/03/09 07:20:13;;;;;;;18.10;10.77;;;;;;;4.86;74.18;101601.25;4993832;28;20091;-86
2022/03/09 07:22:39;;;;;;;17.98;10.60;;;;;;;4.80;73.46;101589.44;5026080;28;20064;-86
2022/03/09 07:25:06;;;;;;;18.17;10.40;;;;;;;5.08;73.93;101655.88;5023848;28;20034;-87
2022/03/09 07:27:32;;;;;;;18.02;10.27;;;;;;;5.02;73.75;101634.59;5028416;28;20030;-88
2022/03/09 07:29:59;;;;;;;16.25;10.23;;;;;;;5.23;73.72;101645.97;5009463;28;20455;-88
2022/03/09 07:32:28;;;;;;;22.85;10.63;;;;;;;5.06;73.55;101622.84;5015767;28;20026;-89
2022/03/09 07:34:54;;;;;;;18.15;10.10;;;;;;;4.71;73.81;101602.44;5015623;28;20022;-88
2022/03/09 07:37:20;;;;;;;19.67;10.48;;;;;;;4.91;73.61;101632.75;5025775;28;20483;-91
2022/03/09 07:39:47;;;;;;;18.80;10.85;;;;;;;4.97;73.76;101634.94;4993665;28;20105;-89
2022/03/09 07:42:14;;;;;;;18.33;9.98;;;;;;;4.72;74.27;101606.88;5009894;28;20033;-89
2022/03/09 07:44:39;;;;;;;17.95;10.10;;;;;;;4.81;74.58;101630.09;5020028;28;20138;-90
2022/03/09 07:47:06;;;;;;;17.67;10.38;;;;;;;4.78;74.25;101630.69;5040925;28;20578;-87
2022/03/09 07:49:33;;;;;;;17.35;10.13;;;;;;;5.00;74.69;101674.06;5016320;28;20045;-89
2022/03/09 07:52:11;;;;;;;17.88;10.23;;;;;;;4.93;74.38;101641.50;5011793;28;20109;-92
2022/03/09 07:54:37;;;;;;;18.73;10.23;;;;;;;4.54;74.72;101587.09;4995143;28;20064;-89
2022/03/09 07:57:03;;;;;;;19.20;10.60;;;;;;;4.89;74.54;101642.94;5019641;28;20092;-88
2022/03/09 07:59:29;;;;;;;16.58;9.85;;;;;;;5.08;74.34;101671.41;5001922;28;20041;-88
2022/03/09 08:01:56;;;;;;;16.95;9.52;;;;;;;4.83;74.63;101619.09;5006625;28;20030;-89
2022/03/09 08:04:23;;;;;;;17.38;10.25;;;;;;;4.71;74.67;101607.63;5001379;28;20402;-86
2022/03/09 08:06:54;;;;;;;17.40;9.98;;;;;;;4.89;74.56;101639.47;4992244;28;20034;-90
2022/03/09 08:09:21;;;;;;;16.45;9.35;;;;;;;4.98;74.84;101637.69;5018042;28;20027;-90
2022/03/09 08:11:48;;;;;;;16.08;9.60;;;;;;;4.87;74.57;101625.47;5014656;28;20033;-89
2022/03/09 08:14:18;;;;;;;15.80;9.35;;;;;;;5.09;74.63;101647.31;4995963;28;20026;-88
2022/03/09 08:16:44;;;;;;;15.85;9.52;;;;;;;5.03;74.79;101638.09;5011265;28;20048;-88
2022/03/09 08:19:10;;;;;;;15.80;9.13;;;;;;;4.81;74.73;101601.63;4994937;28;20556;-88
2022/03/09 08:21:37;;;;;;;16.10;9.32;;;;;;;4.98;74.22;101626.44;4997716;28;20034;-90
2022/03/09 08:24:09;;;;;;;15.63;9.00;;;;;;;4.99;74.59;101628.22;5032124;28;20116;-89
2022/03/09 08:26:35;;;;;;;13.73;8.68;;;;;;;4.93;74.65;101602.69;5014261;28;20033;-89
2022/03/09 08:29:05;;;;;;;14.43;8.82;;;;;;;4.93;74.88;101610.47;5032235;28;20484;-89
2022/03/09 08:31:31;;;;;;;14.70;8.93;;;;;;;4.67;75.33;101556.38;5025695;28;20105;-86
2022/03/09 08:33:59;;;;;;;15.88;9.05;;;;;;;5.07;74.95;101622.97;5026322;28;20117;-89
2022/03/09 08:36:25;;;;;;;14.63;8.65;;;;;;;5.01;74.84;101624.09;5026354;28;20500;-87
2022/03/09 08:38:51;;;;;;;14.00;8.82;;;;;;;4.53;75.21;101531.88;5033924;28;20099;-88
2022/03/09 08:41:21;;;;;;;12.35;8.00;;;;;;;4.65;75.24;101553.63;5010240;28;20041;-86
2022/03/09 08:43:47;;;;;;;12.90;8.02;;;;;;;4.79;74.57;101569.53;4993805;28;20037;-87
2022/03/09 08:46:15;;;;;;;14.88;8.85;;;;;;;5.19;74.93;101641.28;5010945;28;20045;-90
2022/03/09 08:48:43;;;;;;;14.90;8.18;;;;;;;5.23;74.71;101648.56;4994902;28;20049;-91
2022/03/09 08:51:10;;;;;;;14.57;8.40;;;;;;;4.98;74.29;101588.50;5011368;28;20084;-91
2022/03/09 08:53:35;;;;;;;12.70;8.15;;;;;;;4.98;74.85;101597.97;5022681;28;20710;-87
2022/03/09 08:56:07;;;;;;;12.40;7.77;;;;;;;5.10;74.73;101619.75;5025378;28;20132;-89
2022/03/09 08:58:35;;;;;;;13.80;8.00;;;;;;;4.97;75.26;101602.19;5013631;28;20659;-90
2022/03/09 09:01:00;;;;;;;13.73;8.05;;;;;;;5.12;74.34;101625.97;5010579;28;20030;-88
2022/03/09 09:03:26;;;;;;;13.63;8.27;;;;;;;5.14;74.93;101636.47;4981551;28;20030;-85
2022/03/09 09:05:52;;;;;;;12.52;8.35;;;;;;;4.99;75.30;101613.59;4995688;28;20091;-86
2022/03/09 09:08:18;;;;;;;14.10;8.45;;;;;;;4.86;75.13;101592.56;5030173;28;20040;-89
2022/03/09 09:10:44;;;;;;;14.32;8.30;;;;;;;4.93;75.47;101602.69;5028677;28;20041;-87
2022/03/09 09:13:12;;;;;;;12.68;7.93;;;;;;;5.14;74.84;101628.69;5028783;28;20679;-88
2022/03/09 09:15:38;;;;;;;13.05;8.25;;;;;;;5.20;75.25;101645.69;5026200;28;20163;-83
2022/03/09 09:18:05;;;;;;;13.02;8.00;;;;;;;5.35;75.03;101661.69;5016551;28;20048;-86
2022/03/09 09:20:50;;;;;;;13.60;8.20;;;;;;;5.34;75.28;101662.47;5024841;28;20084;-92
2022/03/09 09:23:20;;;;;;;14.70;8.52;;;;;;;5.34;75.00;101664.16;5009751;28;20033;-89
2022/03/09 09:25:47;;;;;;;12.65;7.95;;;;;;;5.32;74.97;101661.41;5014754;28;20384;-89
2022/03/09 09:28:15;;;;;;;14.15;8.38;;;;;;;5.13;75.24;101626.91;4997471;28;20056;-87
2022/03/09 09:30:41;;;;;;;14.77;8.55;;;;;;;5.35;74.88;101660.78;4987854;28;20026;-89
2022/03/09 09:33:09;;;;;;;13.68;8.55;;;;;;;5.11;74.84;101624.16;4986987;28;20042;-88
2022/03/09 09:35:43;;;;;;;14.50;8.63;;;;;;;5.37;75.33;101672.19;5016349;28;20030;-91
2022/03/09 09:38:48;;;;;;;13.10;7.88;;;;;;;5.38;75.15;101659.38;5000653;28;20103;-92
2022/03/09 09:41:36;;;;;;;13.73;7.80;;;;;;;5.35;75.12;101659.09;5018767;28;20034;-91
2022/03/09 09:44:02;;;;;;;13.30;7.80;;;;;;;5.39;75.13;101660.28;5013238;28;20037;-90
2022/03/09 09:46:35;;;;;;;;;;;;;;;5.36;74.96;101660.94;5003161;28;20021;-90
2022/03/09 09:49:01;;;;;;;11.43;7.57;;;;;;;5.19;75.38;101635.22;5034555;28;19917;-91
2022/03/09 09:51:30;;;;;;;10.38;7.18;;;;;;;5.63;73.79;101658.94;5031496;28;20410;-89
2022/03/09 09:53:57;;;;;;;12.32;7.75;;;;;;;5.27;74.94;101636.78;5014842;28;20045;-89
2022/03/09 09:56:23;;;;;;;12.07;7.30;;;;;;;5.18;75.38;101617.84;5020123;28;20555;-83
2022/03/09 09:58:48;;;;;;;11.85;7.28;;;;;;;5.32;75.10;101621.66;5043482;28;20113;-84
2022/03/09 10:01:14;;;;;;;12.40;7.40;;;;;;;5.28;75.43;101641.19;5012300;28;20181;-84
2022/03/09 10:03:40;;;;;;;12.65;7.50;;;;;;;5.45;75.24;101676.38;5028991;28;20067;-82
2022/03/09 10:06:06;;;;;;;11.63;7.90;;;;;;;5.40;75.57;101664.72;5033628;28;20750;-84
2022/03/09 10:08:31;;;;;;;11.68;7.35;;;;;;;5.48;75.15;101672.38;5031854;28;20034;-84
2022/03/09 10:10:59;;;;;;;11.75;7.03;;;;;;;5.17;75.40;101621.22;5024160;28;20022;-84
2022/03/09 10:13:32;;;;;;;10.68;6.88;;;;;;;5.88;74.06;101678.47;5032632;28;20126;-84
2022/03/09 10:16:18;;;;;;;12.82;7.70;;;;;;;6.24;73.77;101674.66;5033690;28;20403;-84
2022/03/09 10:18:55;;;;;;;11.77;6.87;;;;;;;5.84;74.60;101610.66;5024354;28;20044;-85
2022/03/09 10:21:23;;;;;;;15.57;7.80;;;;;;;5.72;74.79;101645.13;5037555;28;20483;-85
2022/03/09 10:23:59;;;;;;;12.82;7.35;;;;;;;5.99;73.87;101671.66;5032269;28;20040;-86
2022/03/09 10:26:34;;;;;;;12.82;6.72;;;;;;;5.83;74.97;101666.78;5020189;28;20037;-85
2022/03/09 10:29:07;;;;;;;12.15;7.57;;;;;;;5.48;74.90;101614.47;5013894;28;20033;-86
2022/03/09 10:31:34;;;;;;;10.43;6.63;;;;;;;5.82;74.96;101671.81;5012896;28;20030;-84
2022/03/09 10:34:07;;;;;;;12.23;7.82;;;;;;;5.89;73.93;101663.84;5030539;28;20493;-84
2022/03/09 10:36:32;;;;;;;13.45;7.40;;;;;;;5.75;74.26;101618.56;5031992;28;20026;-84
2022/03/09 10:39:15;;;;;;;11.80;7.18;;;;;;;6.10;73.15;101657.94;5032443;28;20376;-84
2022/03/09 10:41:41;;;;;;;14.52;7.43;;;;;;;6.19;73.20;101651.72;5031547;28;20038;-86
2022/03/09 10:44:07;;;;;;;9.93;6.70;;;;;;;5.93;73.78;101634.81;5032977;28;20034;-84
2022/03/09 10:46:53;;;;;;;12.07;7.25;;;;;;;6.12;73.42;101663.25;5032886;28;20040;-85
2022/03/09 10:49:19;;;;;;;12.75;7.03;;;;;;;6.10;73.82;101657.94;5031991;28;20040;-85
2022/03/09 10:51:50;;;;;;;11.15;6.80;;;;;;;6.13;73.54;101649.50;4998715;28;20426;-85
2022/03/09 10:54:23;;;;;;;11.18;6.95;;;;;;;6.16;73.66;101652.38;5031512;28;20025;-85
2022/03/09 10:56:49;;;;;;;10.98;6.60;;;;;;;6.11;73.48;101620.84;5015114;28;20037;-85
2022/03/09 10:59:20;;;;;;;9.25;6.25;;;;;;;6.01;73.44;101612.16;5014960;28;20092;-85
2022/03/09 11:02:08;;;;;;;9.77;6.40;;;;;;;6.26;73.36;101649.78;5030809;28;20035;-85
2022/03/09 11:04:34;;;;;;;9.75;6.65;;;;;;;6.26;73.16;101649.78;5013963;28;20503;-85
2022/03/09 11:07:00;;;;;;;9.48;6.30;;;;;;;6.32;72.74;101652.00;5013961;28;20076;-86
2022/03/09 11:09:26;;;;;;;10.45;6.50;;;;;;;5.96;72.95;101587.53;5013729;28;20064;-85
2022/03/09 11:11:52;;;;;;;9.48;6.10;;;;;;;6.20;73.18;101648.34;5031372;28;20030;-84
2022/03/09 11:14:20;;;;;;;9.73;6.40;;;;;;;6.21;73.40;101653.66;5031307;28;20030;-83
2022/03/09 11:16:47;;;;;;;9.70;6.20;;;;;;;6.29;72.80;101641.38;5013753;28;20041;-84
2022/03/09 11:19:14;;;;;;;9.00;6.07;;;;;;;6.21;73.32;101645.88;5031405;28;20163;-84
2022/03/09 11:21:41;;;;;;;10.85;6.57;;;;;;;6.20;73.19;101638.91;5029642;28;20025;-85
2022/03/09 11:24:11;;;;;;;8.90;6.00;;;;;;;6.02;73.41;101604.50;5031363;28;20037;-85